Time;durP1;ratioP1;P1;durP2;ratioP2;P2;SDS_P1;SDS_P2;PMS_P1;PMS_P2;Temp;Humidity;BMP_temperature;BMP_pressure;BME280_temperature;BME280_humidity;BME280_pressure;Samples;Min_cycle;Max_cycle;Signal;HPM_P1;HPM_P2
2023/09/15 00:00:24;;;;;;;1.38;0.77;;;;;;;23.08;100.00;100283.31;5052322;28;20079;-77
2023/09/15 00:02:52;;;;;;;1.65;1.48;;;;;;;23.05;100.00;100304.03;5057998;28;20052;-74
2023/09/15 00:05:18;;;;;;;2.55;1.20;;;;;;;23.63;100.00;100377.69;5060693;28;20409;-77
2023/09/15 00:07:44;;;;;;;5.15;2.38;;;;;;;22.88;100.00;100257.59;5067442;28;20024;-75
2023/09/15 00:10:12;;;;;;;2.05;1.77;;;;;;;22.97;100.00;100272.31;5057685;28;20565;-76
2023/09/15 00:12:44;;;;;;;0.68;0.68;;;;;;;23.51;100.00;100364.00;5057321;28;20116;-76
2023/09/15 00:15:11;;;;;;;1.60;1.40;;;;;;;22.97;100.00;100296.38;5036816;28;20056;-75
2023/09/15 00:17:39;;;;;;;2.35;2.15;;;;;;;23.35;100.00;100371.13;5066299;28;20052;-76
2023/09/15 00:20:21;;;;;;;2.05;1.83;;;;;;;23.02;100.00;100294.34;5053068;28;20119;-75
2023/09/15 00:22:52;;;;;;;1.35;1.25;;;;;;;23.06;100.00;100317.34;5058330;28;20119;-76
2023/09/15 00:25:26;;;;;;;1.55;1.20;;;;;;;23.52;100.00;100389.81;5038438;28;20073;-77
2023/09/15 00:27:54;;;;;;;7.07;2.90;;;;;;;23.00;100.00;100312.31;5053746;28;20040;-75
2023/09/15 00:30:22;;;;;;;1.17;1.08;;;;;;;23.48;100.00;100398.09;5066007;28;20072;-75
2023/09/15 00:32:49;;;;;;;2.55;2.35;;;;;;;23.47;100.00;100391.03;5041059;28;20087;-76
2023/09/15 00:35:19;;;;;;;2.92;2.67;;;;;;;23.01;100.00;100307.81;5059254;28;20048;-75
2023/09/15 00:37:46;;;;;;;0.40;0.40;;;;;;;23.47;100.00;100386.53;5064049;28;20033;-75
2023/09/15 00:40:12;;;;;;;1.13;0.90;;;;;;;23.52;100.00;100397.84;5056255;28;20055;-74
2023/09/15 00:42:38;;;;;;;2.65;2.42;;;;;;;23.08;100.00;100322.59;5056219;28;20041;-77
2023/09/15 00:45:05;;;;;;;2.13;0.95;;;;;;;22.97;100.00;100305.28;5061450;28;20037;-77
2023/09/15 00:47:34;;;;;;;2.97;2.75;;;;;;;22.85;100.00;100286.31;5056503;28;20128;-75
2023/09/15 00:50:03;;;;;;;0.65;0.63;;;;;;;22.32;100.00;100222.19;5062325;28;20528;-74
2023/09/15 00:52:31;;;;;;;2.33;1.02;;;;;;;22.97;100.00;100337.38;5064792;28;20131;-76
2023/09/15 00:54:56;;;;;;;0.90;0.45;;;;;;;22.31;100.00;100220.47;5062169;28;20040;-73
2023/09/15 00:57:25;;;;;;;2.00;1.80;;;;;;;22.91;100.00;100299.38;5064778;28;20056;-74
2023/09/15 00:59:51;;;;;;;1.77;1.27;;;;;;;23.53;100.00;100415.69;5060760;28;20109;-75
2023/09/15 01:02:17;;;;;;;3.55;2.47;;;;;;;22.87;100.00;100297.81;5046317;28;20437;-75
2023/09/15 01:04:43;;;;;;;10.27;2.28;;;;;;;22.83;100.00;100317.63;5064337;28;20141;-76
2023/09/15 01:07:09;;;;;;;2.67;2.47;;;;;;;23.17;100.00;100383.69;5067408;28;20045;-77
2023/09/15 01:09:35;;;;;;;0.98;0.82;;;;;;;23.50;100.00;100418.50;5032607;28;20134;-76
2023/09/15 01:12:01;;;;;;;4.03;1.25;;;;;;;22.94;100.00;100323.28;5055956;28;20045;-76
2023/09/15 01:14:26;;;;;;;3.40;3.10;;;;;;;22.93;100.00;100321.56;5052443;28;20453;-77
2023/09/15 01:17:05;;;;;;;2.58;2.35;;;;;;;23.44;100.00;100429.56;5066007;28;20035;-75
2023/09/15 01:19:56;;;;;;;1.65;1.55;;;;;;;23.45;100.00;100425.91;5041572;28;20036;-75
2023/09/15 01:22:43;;;;;;;1.60;0.98;;;;;;;23.39;100.00;100429.81;5064641;28;20125;-75
2023/09/15 01:25:53;;;;;;;2.80;2.45;;;;;;;23.45;100.00;100433.09;5063990;28;20052;-77
2023/09/15 01:28:41;;;;;;;1.55;1.45;;;;;;;23.10;100.00;100406.38;5056484;28;20137;-77
2023/09/15 01:31:09;;;;;;;3.08;2.05;;;;;;;22.67;100.00;100325.63;5056795;28;20036;-76
2023/09/15 01:33:36;;;;;;;3.83;2.55;;;;;;;22.08;100.00;100266.19;5058108;28;20393;-76
2023/09/15 01:36:03;;;;;;;0.65;0.65;;;;;;;22.97;100.00;100440.91;5041238;28;20489;-76
2023/09/15 01:38:30;;;;;;;1.25;1.05;;;;;;;23.07;100.00;100455.56;5058367;28;20560;-75
2023/09/15 01:40:55;;;;;;;2.35;1.83;;;;;;;22.78;100.00;100449.00;5056012;28;20123;-77
2023/09/15 01:43:21;;;;;;;2.00;1.83;;;;;;;22.23;100.00;100369.69;5064949;28;20036;-75
2023/09/15 01:45:46;;;;;;;1.67;1.55;;;;;;;22.68;100.00;100477.13;5056183;28;20409;-75
2023/09/15 01:48:13;;;;;;;7.00;1.63;;;;;;;22.04;100.00;100385.72;5060857;28;20044;-76
2023/09/15 01:50:39;;;;;;;1.98;1.63;;;;;;;22.53;100.00;100493.00;5062604;28;20036;-75
2023/09/15 01:53:05;;;;;;;2.33;2.13;;;;;;;22.47;100.00;100495.09;5060291;28;20032;-76
2023/09/15 01:55:33;;;;;;;1.30;1.20;;;;;;;22.12;100.00;100476.22;5061056;28;20512;-75
2023/09/15 01:57:58;;;;;;;4.45;2.72;;;;;;;21.99;100.00;100508.00;5041629;28;20396;-74
2023/09/15 02:00:24;;;;;;;3.00;2.28;;;;;;;22.03;100.00;100533.66;5063646;28;20051;-75
2023/09/15 02:02:51;;;;;;;2.33;2.13;;;;;;;21.96;100.00;100524.19;5041341;28;20482;-74
2023/09/15 02:05:24;;;;;;;5.65;1.92;;;;;;;21.90;100.00;100524.44;5058709;28;20049;-76
2023/09/15 02:07:49;;;;;;;;;;;;;;;21.89;100.00;100530.72;5065227;28;20477;-76
2023/09/15 02:10:15;;;;;;;3.10;2.80;;;;;;;21.14;100.00;100438.78;5059955;28;19920;-75
2023/09/15 02:12:40;;;;;;;2.72;1.48;;;;;;;21.15;100.00;100440.50;5060313;28;20071;-76
2023/09/15 02:15:06;;;;;;;4.38;4.03;;;;;;;21.61;100.00;100529.28;5063584;28;20048;-76
2023/09/15 02:17:32;;;;;;;5.43;2.20;;;;;;;21.39;100.00;100489.25;5044807;28;20052;-78
2023/09/15 02:19:58;;;;;;;3.00;2.75;;;;;;;21.52;100.00;100523.47;5061546;28;20407;-76
2023/09/15 02:22:24;;;;;;;2.20;1.90;;;;;;;21.59;100.00;100536.50;5044757;28;20071;-76
2023/09/15 02:24:50;;;;;;;3.80;3.35;;;;;;;20.94;100.00;100430.75;5060443;28;20045;-75
2023/09/15 02:27:15;;;;;;;2.63;2.42;;;;;;;21.25;100.00;100511.22;5058941;28;20455;-75
2023/09/15 02:29:41;;;;;;;1.85;1.75;;;;;;;21.21;100.00;100501.63;5064155;28;20033;-76
2023/09/15 02:32:06;;;;;;;2.78;2.38;;;;;;;20.81;100.00;100443.72;5058848;28;20040;-77
2023/09/15 02:34:32;;;;;;;2.75;2.55;;;;;;;21.14;100.00;100512.59;5052972;28;20106;-76
2023/09/15 02:36:57;;;;;;;3.45;3.13;;;;;;;21.25;100.00;100561.06;5065391;28;20412;-77
2023/09/15 02:39:23;;;;;;;1.90;1.80;;;;;;;21.03;100.00;100553.09;5062419;28;20065;-76
2023/09/15 02:41:48;;;;;;;5.78;2.28;;;;;;;20.59;100.00;100449.09;5065389;28;20032;-75
2023/09/15 02:44:14;;;;;;;7.50;2.50;;;;;;;21.26;100.00;100561.00;5059714;28;20069;-74
2023/09/15 02:46:39;;;;;;;3.33;3.03;;;;;;;21.21;100.00;100567.44;5039841;28;20029;-77
2023/09/15 02:49:05;;;;;;;3.88;3.53;;;;;;;21.05;100.00;100532.56;5060030;28;20140;-76
2023/09/15 02:51:30;;;;;;;3.30;2.97;;;;;;;21.05;100.00;100533.41;5061953;28;20751;-76
2023/09/15 02:53:56;;;;;;;24.98;3.92;;;;;;;20.47;100.00;100421.09;5057789;28;20041;-77
2023/09/15 02:56:23;;;;;;;1.85;1.75;;;;;;;20.52;100.00;100405.78;5063411;28;20045;-77
2023/09/15 02:58:49;;;;;;;4.13;2.50;;;;;;;20.86;100.00;100449.72;5059598;28;20024;-75
2023/09/15 03:01:15;;;;;;;2.15;1.70;;;;;;;20.64;100.00;100404.44;5061390;28;20887;-75
2023/09/15 03:03:41;;;;;;;2.30;2.10;;;;;;;20.86;100.00;100423.94;5041980;28;20048;-77
2023/09/15 03:06:08;;;;;;;3.67;2.90;;;;;;;21.24;100.00;100508.63;5059295;28;20049;-76
2023/09/15 03:08:34;;;;;;;5.90;4.30;;;;;;;21.17;100.00;100494.69;5062812;28;20051;-76
2023/09/15 03:11:00;;;;;;;6.30;5.72;;;;;;;21.28;100.00;100512.88;5064654;28;20052;-76
2023/09/15 03:13:25;;;;;;;1.35;1.23;;;;;;;20.72;100.00;100410.34;5065728;28;20151;-75
2023/09/15 03:15:51;;;;;;;1.88;1.77;;;;;;;20.87;100.00;100441.66;5054728;28;20841;-75
2023/09/15 03:18:17;;;;;;;2.65;2.42;;;;;;;20.86;100.00;100433.72;5055559;28;20052;-77
2023/09/15 03:20:43;;;;;;;2.65;2.10;;;;;;;20.68;100.00;100422.06;5052396;28;20048;-75
2023/09/15 03:23:08;;;;;;;3.55;3.25;;;;;;;21.34;100.00;100546.47;5034997;28;20484;-75
2023/09/15 03:25:34;;;;;;;2.97;1.65;;;;;;;20.74;100.00;100452.91;5044450;28;20481;-75
2023/09/15 03:27:59;;;;;;;2.15;1.85;;;;;;;20.82;100.00;100506.81;5040978;28;20037;-78
2023/09/15 03:30:25;;;;;;;3.90;3.60;;;;;;;20.71;100.00;100496.59;5056195;28;20044;-75
2023/09/15 03:32:50;;;;;;;0.85;0.75;;;;;;;21.08;100.00;100541.28;5064896;28;20048;-77
2023/09/15 03:35:16;;;;;;;1.50;1.35;;;;;;;21.15;100.00;100571.25;5057349;28;20552;-77
2023/09/15 03:37:41;;;;;;;3.03;2.22;;;;;;;21.40;100.00;100581.81;5048213;28;20091;-75
2023/09/15 03:40:11;;;;;;;2.67;2.35;;;;;;;21.31;100.00;100574.16;5048317;28;20068;-75
2023/09/15 03:42:39;;;;;;;2.42;1.88;;;;;;;21.03;100.00;100577.97;5046938;28;20037;-75
2023/09/15 03:45:08;;;;;;;3.40;2.95;;;;;;;20.55;100.00;100479.44;5038433;28;20039;-73
2023/09/15 03:47:34;;;;;;;2.67;2.47;;;;;;;20.32;100.00;100478.56;5049147;28;20048;-75
2023/09/15 03:50:00;;;;;;;2.92;2.17;;;;;;;20.84;100.00;100555.66;5057855;28;20036;-77
2023/09/15 03:52:25;;;;;;;3.20;1.30;;;;;;;20.43;100.00;100478.13;5067799;28;20039;-75
2023/09/15 03:54:51;;;;;;;2.33;2.13;;;;;;;21.14;100.00;100574.88;5065925;28;20032;-76
2023/09/15 03:57:16;;;;;;;4.85;4.05;;;;;;;21.38;100.00;100593.47;5060477;28;20071;-74
2023/09/15 03:59:42;;;;;;;4.78;3.42;;;;;;;21.34;100.00;100608.72;5062336;28;20032;-75
2023/09/15 04:02:08;;;;;;;6.40;3.92;;;;;;;21.12;100.00;100581.19;5035561;28;20049;-74
2023/09/15 04:04:33;;;;;;;3.47;1.83;;;;;;;21.04;100.00;100597.50;5075835;28;20032;-75
2023/09/15 04:06:59;;;;;;;6.13;4.28;;;;;;;20.75;100.00;100534.69;5062400;28;20075;-76
2023/09/15 04:09:24;;;;;;;1.55;1.38;;;;;;;20.18;100.00;100428.47;5047439;28;20048;-75
2023/09/15 04:11:54;;;;;;;1.73;1.60;;;;;;;21.06;100.00;100560.97;5044314;28;20041;-76
2023/09/15 04:14:19;;;;;;;4.53;4.07;;;;;;;21.31;100.00;100624.03;5048404;28;20051;-78
2023/09/15 04:16:45;;;;;;;4.88;3.38;;;;;;;20.61;100.00;100500.56;5057367;28;20028;-75
2023/09/15 04:19:10;;;;;;;3.58;2.83;;;;;;;20.90;100.00;100554.50;5041707;28;20484;-75
2023/09/15 04:21:38;;;;;;;3.45;3.15;;;;;;;21.41;100.00;100639.59;5067617;28;20040;-75
2023/09/15 04:24:05;;;;;;;4.82;3.50;;;;;;;20.65;100.00;100515.50;5056123;28;20045;-75
2023/09/15 04:26:31;;;;;;;10.10;4.20;;;;;;;20.79;100.00;100525.59;5059392;28;20400;-75
2023/09/15 04:28:58;;;;;;;9.60;4.93;;;;;;;21.18;100.00;100575.59;5067205;28;20027;-74
2023/09/15 04:31:23;;;;;;;2.40;1.95;;;;;;;20.87;100.00;100528.84;5062306;28;20035;-77
2023/09/15 04:33:49;;;;;;;2.70;2.50;;;;;;;21.16;100.00;100620.16;5058955;28;20308;-78
2023/09/15 04:36:16;;;;;;;8.05;3.35;;;;;;;21.02;100.00;100600.22;5046441;28;20147;-76
2023/09/15 04:38:41;;;;;;;3.20;2.40;;;;;;;20.74;100.00;100540.91;5061956;28;20049;-75
2023/09/15 04:41:07;;;;;;;2.70;2.00;;;;;;;21.05;100.00;100609.94;5056974;28;20040;-76
2023/09/15 04:43:32;;;;;;;4.93;4.43;;;;;;;21.09;100.00;100595.50;5065265;28;20025;-76
2023/09/15 04:45:58;;;;;;;3.75;2.30;;;;;;;21.45;100.00;100645.72;5035401;28;20609;-76
2023/09/15 04:48:23;;;;;;;2.35;2.15;;;;;;;21.36;100.00;100636.22;5060916;28;20081;-76
2023/09/15 04:50:49;;;;;;;3.60;2.88;;;;;;;20.66;100.00;100527.91;5064038;28;20090;-77
2023/09/15 04:53:19;;;;;;;2.85;2.28;;;;;;;21.30;100.00;100657.81;5064582;28;20063;-75
2023/09/15 04:55:45;;;;;;;3.33;2.72;;;;;;;20.81;100.00;100561.06;5040501;28;20555;-76
2023/09/15 04:58:11;;;;;;;1.95;1.75;;;;;;;20.72;100.00;100564.09;5062636;28;20088;-75
2023/09/15 05:00:37;;;;;;;18.30;2.65;;;;;;;21.23;100.00;100653.66;5058228;28;20043;-75
2023/09/15 05:03:03;;;;;;;3.00;2.03;;;;;;;20.60;100.00;100542.34;5065982;28;20052;-76
2023/09/15 05:05:29;;;;;;;1.95;1.85;;;;;;;21.23;100.00;100661.69;5058886;28;20543;-75
2023/09/15 05:07:56;;;;;;;2.95;2.00;;;;;;;20.70;100.00;100585.53;5062317;28;20060;-76
2023/09/15 05:10:22;;;;;;;1.95;1.73;;;;;;;20.57;100.00;100557.59;5063747;28;20369;-75
2023/09/15 05:12:48;;;;;;;3.55;3.25;;;;;;;20.63;100.00;100565.38;5061794;28;20502;-76
2023/09/15 05:15:13;;;;;;;4.55;3.05;;;;;;;21.29;100.00;100661.44;5058973;28;20095;-76
2023/09/15 05:17:40;;;;;;;2.40;1.80;;;;;;;21.20;100.00;100670.69;5062324;28;20504;-76
2023/09/15 05:20:06;;;;;;;1.83;1.67;;;;;;;20.97;100.00;100628.03;5062943;28;20083;-76
2023/09/15 05:22:31;;;;;;;0.85;0.75;;;;;;;21.21;100.00;100644.84;5059917;28;20036;-76
2023/09/15 05:24:58;;;;;;;3.33;2.55;;;;;;;20.33;100.00;100514.06;5066167;28;20067;-77
2023/09/15 05:27:23;;;;;;;1.98;1.83;;;;;;;20.93;100.00;100640.66;5055350;28;20044;-75
2023/09/15 05:29:50;;;;;;;0.93;0.80;;;;;;;20.68;100.00;100592.72;5057826;28;20047;-77
2023/09/15 05:32:16;;;;;;;1.95;1.73;;;;;;;21.05;100.00;100645.47;5034533;28;20049;-77
2023/09/15 05:34:41;;;;;;;1.92;1.65;;;;;;;21.24;100.00;100661.63;5053160;28;20037;-77
2023/09/15 05:37:07;;;;;;;3.28;2.67;;;;;;;20.59;100.00;100577.94;5068303;28;20095;-75
2023/09/15 05:39:32;;;;;;;4.93;4.28;;;;;;;20.51;100.00;100545.34;5063614;28;20555;-79
2023/09/15 05:41:58;;;;;;;1.92;1.75;;;;;;;20.33;100.00;100532.72;5056527;28;20048;-77
2023/09/15 05:44:24;;;;;;;1.35;1.25;;;;;;;20.86;100.00;100572.44;5049808;28;20041;-76
2023/09/15 05:46:52;;;;;;;1.75;1.27;;;;;;;20.76;100.00;100550.59;5045941;28;20047;-76
2023/09/15 05:49:18;;;;;;;2.13;1.95;;;;;;;20.83;100.00;100553.88;5030646;28;20140;-75
2023/09/15 05:51:43;;;;;;;2.55;2.33;;;;;;;21.47;100.00;100654.53;5039179;28;20056;-78
2023/09/15 05:54:09;;;;;;;1.75;1.48;;;;;;;21.74;100.00;100683.66;5046658;28;20055;-79
2023/09/15 05:56:34;;;;;;;1.25;1.15;;;;;;;21.67;100.00;100670.56;5046938;28;20626;-76
2023/09/15 05:59:00;;;;;;;5.25;2.20;;;;;;;21.76;100.00;100687.16;5053161;28;20041;-75
2023/09/15 06:01:25;;;;;;;3.35;2.95;;;;;;;21.64;100.00;100654.69;5049244;28;20467;-75
2023/09/15 06:03:51;;;;;;;4.18;3.10;;;;;;;21.17;100.00;100581.88;5036699;28;20053;-76
2023/09/15 06:06:17;;;;;;;1.98;0.73;;;;;;;21.69;100.00;100694.56;5063987;28;20052;-76
2023/09/15 06:08:42;;;;;;;0.82;0.75;;;;;;;21.69;100.00;100682.06;5062528;28;20055;-76
2023/09/15 06:11:08;;;;;;;3.30;1.92;;;;;;;21.15;100.00;100595.28;5055680;28;20025;-74
2023/09/15 06:13:34;;;;;;;1.98;1.70;;;;;;;21.66;100.00;100679.53;5064732;28;20047;-75
2023/09/15 06:16:00;;;;;;;0.88;0.85;;;;;;;21.83;100.00;100683.28;5057544;28;20049;-76
2023/09/15 06:18:25;;;;;;;1.10;0.45;;;;;;;21.70;100.00;100689.16;5058044;28;20051;-76
2023/09/15 06:20:55;;;;;;;0.77;0.77;;;;;;;22.01;100.00;100709.22;5061837;28;20118;-76
2023/09/15 06:23:21;;;;;;;1.50;1.40;;;;;;;21.66;100.00;100630.59;5062487;28;20045;-76
2023/09/15 06:25:46;;;;;;;3.33;1.48;;;;;;;21.56;100.00;100606.03;5065389;28;20028;-74
2023/09/15 06:28:12;;;;;;;1.33;0.98;;;;;;;21.49;100.00;100600.13;5059030;28;20480;-74
2023/09/15 06:30:37;;;;;;;1.38;1.27;;;;;;;22.13;100.00;100708.69;5059961;28;20361;-75
2023/09/15 06:33:03;;;;;;;1.73;1.63;;;;;;;21.60;100.00;100588.97;5050568;28;20037;-77
2023/09/15 06:35:29;;;;;;;1.00;0.93;;;;;;;21.80;100.00;100613.97;5064377;28;20150;-76
2023/09/15 06:37:54;;;;;;;0.90;0.90;;;;;;;22.31;100.00;100693.69;5059668;28;20017;-75
2023/09/15 06:40:20;;;;;;;1.75;1.65;;;;;;;21.62;100.00;100624.50;5057186;28;20396;-76
2023/09/15 06:42:45;;;;;;;6.18;1.52;;;;;;;21.84;100.00;100624.44;5056454;28;20648;-76
2023/09/15 06:45:11;;;;;;;7.45;2.75;;;;;;;21.80;100.00;100601.47;5058795;28;20484;-77
2023/09/15 06:47:37;;;;;;;0.57;0.57;;;;;;;22.24;100.00;100694.91;5050285;28;20056;-77
2023/09/15 06:50:03;;;;;;;3.17;2.33;;;;;;;21.95;100.00;100668.53;5064271;28;20119;-75
2023/09/15 06:52:29;;;;;;;0.73;0.73;;;;;;;21.60;100.00;100613.00;5056477;28;20029;-77
2023/09/15 06:54:54;;;;;;;1.15;1.05;;;;;;;21.65;100.00;100616.34;5062984;28;20129;-76
2023/09/15 06:57:20;;;;;;;2.55;2.17;;;;;;;21.45;100.00;100597.66;5038302;28;20115;-76
2023/09/15 06:59:46;;;;;;;1.48;1.38;;;;;;;22.30;100.00;100724.03;5023544;28;20136;-76
2023/09/15 07:02:11;;;;;;;2.10;1.40;;;;;;;22.23;100.00;100706.50;5031324;28;20136;-76
2023/09/15 07:04:37;;;;;;;4.18;2.78;;;;;;;21.56;100.00;100645.25;5052513;28;20049;-76
2023/09/15 07:07:05;;;;;;;2.42;1.73;;;;;;;21.84;100.00;100709.06;5034674;28;20092;-77
2023/09/15 07:09:30;;;;;;;2.50;2.30;;;;;;;21.56;100.00;100630.06;5017449;28;20072;-75
2023/09/15 07:11:56;;;;;;;2.72;1.65;;;;;;;22.19;100.00;100742.28;5036930;28;20057;-76
2023/09/15 07:14:21;;;;;;;1.85;1.70;;;;;;;22.10;100.00;100702.59;5042877;28;20406;-74
2023/09/15 07:16:48;;;;;;;2.38;1.63;;;;;;;21.55;100.00;100580.28;5046582;28;20094;-74
2023/09/15 07:19:13;;;;;;;2.13;1.98;;;;;;;21.73;100.00;100650.75;5036013;28;20053;-75
2023/09/15 07:21:41;;;;;;;6.32;3.08;;;;;;;22.26;100.00;100710.84;5020047;28;20045;-76
2023/09/15 07:24:08;;;;;;;1.73;1.35;;;;;;;22.47;100.00;100742.00;5046627;28;20043;-74
2023/09/15 07:26:33;;;;;;;2.10;1.55;;;;;;;21.83;100.00;100630.72;5026850;28;20113;-75
2023/09/15 07:28:59;;;;;;;0.90;0.68;;;;;;;21.92;100.00;100618.78;5048532;28;20025;-76
2023/09/15 07:31:24;;;;;;;2.60;2.40;;;;;;;22.65;100.00;100732.28;5045937;28;20168;-77
2023/09/15 07:33:50;;;;;;;1.08;1.00;;;;;;;21.86;100.00;100617.22;5038583;28;20127;-73
2023/09/15 07:36:15;;;;;;;3.53;1.98;;;;;;;22.53;100.00;100743.53;5045464;28;20132;-76
2023/09/15 07:38:41;;;;;;;2.28;2.08;;;;;;;21.65;100.00;100580.75;5045462;28;20057;-75
2023/09/15 07:41:06;;;;;;;0.68;0.68;;;;;;;22.43;100.00;100696.72;5041790;28;20491;-75
2023/09/15 07:43:32;;;;;;;2.45;1.17;;;;;;;22.57;100.00;100746.94;5041003;28;20103;-76
2023/09/15 07:45:57;;;;;;;3.85;3.53;;;;;;;22.69;100.00;100735.72;5030185;28;20481;-76
2023/09/15 07:48:23;;;;;;;1.13;0.95;;;;;;;22.90;100.00;100756.13;5040270;28;20059;-76
2023/09/15 07:50:50;;;;;;;1.80;1.65;;;;;;;23.09;100.00;100758.00;5041022;28;20037;-75
2023/09/15 07:53:16;;;;;;;1.63;1.52;;;;;;;23.05;100.00;100754.56;5038545;28;20564;-77
2023/09/15 07:55:41;;;;;;;1.70;1.30;;;;;;;22.91;100.00;100762.34;5047347;28;20057;-74
2023/09/15 07:58:07;;;;;;;5.38;2.47;;;;;;;23.05;100.00;100761.75;5019361;28;20500;-76
2023/09/15 08:00:33;;;;;;;1.08;0.95;;;;;;;23.18;100.00;100741.50;5042731;28;20041;-75
2023/09/15 08:02:58;;;;;;;2.17;1.98;;;;;;;22.88;100.00;100712.50;5042002;28;20056;-76
2023/09/15 08:05:23;;;;;;;1.77;1.65;;;;;;;22.06;100.00;100602.13;5039015;28;20788;-76
2023/09/15 08:07:49;;;;;;;0.82;0.77;;;;;;;23.06;100.00;100723.31;5048182;28;20408;-76
2023/09/15 08:10:17;;;;;;;1.77;1.58;;;;;;;23.14;100.00;100727.38;5050058;28;20079;-76
2023/09/15 08:12:43;;;;;;;3.72;2.78;;;;;;;23.25;100.00;100726.88;5039633;28;20050;-77
2023/09/15 08:15:09;;;;;;;3.22;3.00;;;;;;;23.37;100.00;100754.88;5030005;28;20128;-81
2023/09/15 08:17:34;;;;;;;2.70;2.50;;;;;;;23.36;100.00;100742.41;5033452;28;20064;-80
2023/09/15 08:20:01;;;;;;;2.35;1.88;;;;;;;22.85;100.00;100661.81;5022484;28;20040;-79
2023/09/15 08:22:27;;;;;;;4.68;2.15;;;;;;;23.10;100.00;100724.91;5018968;28;20041;-79
2023/09/15 08:24:53;;;;;;;2.25;1.77;;;;;;;23.51;100.00;100738.16;5038948;28;20037;-81
2023/09/15 08:27:19;;;;;;;3.58;1.45;;;;;;;23.42;100.00;100743.94;5017317;28;20144;-80
2023/09/15 08:29:45;;;;;;;1.10;0.85;;;;;;;23.73;100.00;100738.81;5037174;28;20087;-77
2023/09/15 08:32:14;;;;;;;1.77;1.67;;;;;;;23.62;100.00;100671.50;5038974;28;20053;-80
2023/09/15 08:34:41;;;;;;;1.17;1.05;;;;;;;23.36;100.00;100659.41;5041362;28;20032;-78
2023/09/15 08:37:06;;;;;;;2.00;1.75;;;;;;;24.02;100.00;100752.59;5044476;28;20072;-84
2023/09/15 08:39:32;;;;;;;1.92;1.23;;;;;;;23.69;100.00;100659.50;5037781;28;20053;-71
2023/09/15 08:42:04;;;;;;;0.65;0.65;;;;;;;24.28;100.00;100751.28;5022991;28;20178;-80
2023/09/15 08:44:32;;;;;;;1.57;1.23;;;;;;;24.30;100.00;100727.91;5046734;28;20037;-78
2023/09/15 08:47:00;;;;;;;2.33;1.85;;;;;;;24.30;100.00;100738.63;5047003;28;20078;-81
2023/09/15 08:49:26;;;;;;;4.32;2.25;;;;;;;24.20;100.00;100703.38;5042630;28;20095;-81
2023/09/15 08:51:54;;;;;;;2.28;1.40;;;;;;;23.93;100.00;100644.03;5047233;28;20117;-82
2023/09/15 08:54:20;;;;;;;0.65;0.57;;;;;;;24.68;100.00;100743.84;5044880;28;20190;-80
2023/09/15 08:56:47;;;;;;;14.05;2.65;;;;;;;24.73;100.00;100728.38;5048300;28;20401;-81
2023/09/15 08:59:13;;;;;;;1.00;0.80;;;;;;;24.78;100.00;100746.91;5030238;28;20065;-81
2023/09/15 09:01:39;;;;;;;4.30;3.72;;;;;;;24.38;100.00;100663.16;5037698;28;20029;-85
2023/09/15 09:04:05;;;;;;;2.70;2.15;;;;;;;24.17;100.00;100662.47;5043892;28;20394;-77
2023/09/15 09:06:37;;;;;;;2.55;2.33;;;;;;;24.44;100.00;100728.06;5036955;28;20451;-80
2023/09/15 09:09:04;;;;;;;1.77;1.03;;;;;;;24.28;100.00;100662.78;5041014;28;20033;-80
2023/09/15 09:11:30;;;;;;;1.55;1.42;;;;;;;24.86;100.00;100747.34;5040871;28;21038;-74
2023/09/15 09:13:56;;;;;;;1.35;1.25;;;;;;;24.53;100.00;100744.66;5045126;28;20035;-79
2023/09/15 09:16:22;;;;;;;1.02;0.68;;;;;;;24.63;100.00;100753.94;5038541;28;20033;-82
2023/09/15 09:18:56;;;;;;;1.05;0.98;;;;;;;24.14;100.00;100660.81;5034685;28;20064;-80
2023/09/15 09:21:24;;;;;;;1.77;1.67;;;;;;;24.46;100.00;100722.59;5047966;28;20047;-83
2023/09/15 09:23:49;;;;;;;1.50;1.40;;;;;;;24.11;100.00;100639.50;5036216;28;20049;-77
2023/09/15 09:26:15;;;;;;;9.60;3.30;;;;;;;24.86;100.00;100747.34;5044143;28;20127;-82
2023/09/15 09:28:40;;;;;;;4.10;2.67;;;;;;;24.84;100.00;100736.72;5031366;28;20040;-81
2023/09/15 09:31:08;;;;;;;1.52;1.30;;;;;;;24.59;100.00;100662.03;5037958;28;20427;-87
2023/09/15 09:33:36;;;;;;;1.98;1.65;;;;;;;25.10;100.00;100738.88;5040811;28;20040;-86
2023/09/15 09:36:13;;;;;;;8.73;2.42;;;;;;;24.76;100.00;100727.31;5040461;28;20060;-85
2023/09/15 09:38:44;;;;;;;0.60;0.60;;;;;;;24.45;100.00;100648.47;5025147;28;20040;-91
2023/09/15 09:41:10;;;;;;;2.35;2.15;;;;;;;24.52;100.00;100649.03;5022704;28;20040;-86
2023/09/15 09:43:38;;;;;;;1.63;1.52;;;;;;;24.84;100.00;100720.59;5034190;28;20046;-85
2023/09/15 09:46:06;;;;;;;3.83;3.10;;;;;;;24.68;100.00;100710.75;5021078;28;20083;-82
2023/09/15 09:48:34;;;;;;;2.28;2.10;;;;;;;24.79;100.00;100695.81;5038805;28;20488;-84
2023/09/15 09:51:05;;;;;;;3.65;2.25;;;;;;;25.21;100.00;100732.00;5036292;28;20511;-79
2023/09/15 09:53:32;;;;;;;3.85;3.50;;;;;;;25.10;100.00;100704.88;5031990;28;20132;-74
2023/09/15 09:56:03;;;;;;;3.25;2.50;;;;;;;25.18;100.00;100665.03;5051499;28;20079;-72
2023/09/15 09:58:28;;;;;;;2.00;1.75;;;;;;;25.30;100.00;100716.34;5059448;28;20040;-81
2023/09/15 10:00:54;;;;;;;3.80;2.70;;;;;;;25.33;100.00;100727.75;5059513;28;20487;-79
2023/09/15 10:03:23;;;;;;;1.98;1.48;;;;;;;24.75;100.00;100634.34;5060698;28;20052;-77
2023/09/15 10:05:49;;;;;;;2.63;1.70;;;;;;;24.74;100.00;100644.19;5057930;28;20040;-81
2023/09/15 10:08:15;;;;;;;3.33;3.08;;;;;;;25.62;100.00;100718.03;5056631;28;20032;-83
2023/09/15 10:10:43;;;;;;;2.92;2.72;;;;;;;25.47;100.00;100709.06;5056004;28;20035;-78
2023/09/15 10:13:13;;;;;;;1.70;1.60;;;;;;;24.99;100.00;100637.47;5057089;28;20049;-85
2023/09/15 10:15:41;;;;;;;3.40;2.63;;;;;;;25.56;100.00;100726.44;5061202;28;20616;-83
2023/09/15 10:18:08;;;;;;;2.20;2.00;;;;;;;25.03;100.00;100618.41;5061128;28;20040;-82
2023/09/15 10:20:36;;;;;;;1.50;1.40;;;;;;;25.11;100.00;100635.91;5056679;28;20059;-84
2023/09/15 10:23:04;;;;;;;4.75;4.13;;;;;;;25.83;100.00;100717.75;5057095;28;20035;-81
2023/09/15 10:25:56;;;;;;;2.10;1.73;;;;;;;25.69;100.00;100719.41;5039111;28;20030;-83
2023/09/15 10:28:23;;;;;;;1.73;1.63;;;;;;;25.78;100.00;100709.97;5049699;28;20049;-83
2023/09/15 10:30:54;;;;;;;5.50;2.58;;;;;;;25.87;100.00;100728.28;5054248;28;20181;-85
2023/09/15 10:33:25;;;;;;;1.50;1.40;;;;;;;26.23;100.00;100734.22;5041406;28;20052;-82
2023/09/15 10:35:51;;;;;;;2.17;2.00;;;;;;;26.68;100.00;100719.78;5053535;28;20091;-81
2023/09/15 10:38:30;;;;;;;1.52;1.42;;;;;;;26.98;100.00;100708.06;5052419;28;20040;-83
2023/09/15 10:40:58;;;;;;;4.43;3.55;;;;;;;26.63;100.00;100694.13;5057340;28;20945;-81
2023/09/15 10:43:23;;;;;;;2.15;2.00;;;;;;;27.11;100.00;100714.41;5056659;28;20039;-79
2023/09/15 10:46:07;;;;;;;1.38;0.70;;;;;;;27.30;100.00;100721.28;5057211;28;20656;-85
2023/09/15 10:48:51;;;;;;;4.50;4.03;;;;;;;27.20;100.00;100712.09;5055649;28;20128;-81
2023/09/15 10:51:18;;;;;;;2.13;2.03;;;;;;;26.63;100.00;100702.22;5058415;28;20392;-80
2023/09/15 10:53:49;;;;;;;2.95;2.63;;;;;;;26.75;100.00;100615.28;5055059;28;20048;-75
2023/09/15 10:56:16;;;;;;;1.38;1.25;;;;;;;27.95;100.00;100716.06;5047278;28;20071;-76
2023/09/15 10:58:43;;;;;;;3.00;2.33;;;;;;;27.60;100.00;100707.63;5052916;28;20078;-83
2023/09/15 11:01:10;;;;;;;2.15;1.90;;;;;;;27.56;99.12;100652.22;5057944;28;20411;-81
2023/09/15 11:03:39;;;;;;;3.40;2.33;;;;;;;26.77;100.00;100647.50;5026819;28;20485;-84
2023/09/15 11:06:08;;;;;;;1.40;1.30;;;;;;;26.61;100.00;100616.16;5055118;28;20127;-80
2023/09/15 11:08:35;;;;;;;3.10;2.13;;;;;;;27.15;100.00;100623.44;5035720;28;20098;-83
2023/09/15 11:11:09;;;;;;;1.10;1.00;;;;;;;26.86;100.00;100598.44;5057289;28;20028;-83
2023/09/15 11:13:35;;;;;;;2.47;2.05;;;;;;;27.55;100.00;100697.16;5056540;28;20517;-79
2023/09/15 11:16:01;;;;;;;2.60;2.45;;;;;;;27.25;100.00;100701.88;5057320;28;20072;-81